首页
METAR-TAF:

METAR-TAF

机场 :

丹維爾, 弗吉尼亚州, 美国

纬度: 36-34-22N, 经度: 079-20-10W, 海拔: 174米

当前天气观测

该预报发布于1小时和14分钟前的14:53 UTC
风速6节,风向多变
温度 26°C
湿度 65%
气压 1015 hPa
能見度: 16.1公里
阴天层高于2600英尺

METAR: KDAN 051453Z AUTO VRB06KT 10SM OVC026 26/19 A2997 RMK AO2 SLP138 T02610194 55001

时间: 12:07 (16:07 UTC)

预报

该预报发布于4小时和47分钟前的11:20 UTC
预报有效从05日的 12点(UTC)到 06日的 12点(UTC)
风速3节,风向西南
能見度: 10公里
散云层高于4500英尺
从 05日的 1600点(UTC)
风速7节,风向南转西南
能見度: 10公里
多云层高于4500英尺
从 05日的 2000点(UTC)
风速6节,风向南转西南
能見度: 10公里
散云层高于4000英尺, 积雨云.
多云层高于7000英尺
附近有雷暴
从 06日的 0600点(UTC)
风速3节,风向多变
能見度: 10公里
多云层高于8000英尺

TAF: KDAN 051120Z 0512/0612 22003KT P6SM SCT045 FM051600 21007KT P6SM BKN045 FM052000 21006KT P6SM VCTS SCT040CB BKN070 FM060600 VRB03KT P6SM BKN080

超过4000个机场的气象观测和天气预报(METAR&TAF报告)。

可查询的气象台以黄色和红色小点在地图上表示。

将鼠标移到小点上方,可查看气象台名称。

然后点击查看天气观测和预报。

如需切换地图:点击带黑十字的绿色按钮放大地图;点击带横线的绿色按钮缩小地图;或者点击绿色箭头查看邻近地区的地图。


METAR-TAF: